createdAt,value
2023-03-06T00:02:25.853Z,13.50
2023-03-06T00:04:53.438Z,12.82
2023-03-06T00:07:20.976Z,13.32
2023-03-06T00:09:48.559Z,12.80
2023-03-06T00:12:16.099Z,13.13
2023-03-06T00:14:43.604Z,14.77
2023-03-06T00:17:11.141Z,12.65
2023-03-06T00:19:38.682Z,12.23
2023-03-06T00:22:06.265Z,12.90
2023-03-06T00:24:33.775Z,13.13
2023-03-06T00:27:01.296Z,13.15
2023-03-06T00:29:29.048Z,12.75
2023-03-06T00:31:56.648Z,12.48
2023-03-06T00:34:24.300Z,13.80
2023-03-06T00:36:51.834Z,12.95
2023-03-06T00:39:19.357Z,11.07
2023-03-06T00:41:47.207Z,13.02
2023-03-06T00:44:14.724Z,12.10
2023-03-06T00:46:42.304Z,9.68
2023-03-06T00:49:09.878Z,12.23
2023-03-06T00:51:37.446Z,13.93
2023-03-06T00:54:04.993Z,13.18
2023-03-06T00:56:32.496Z,10.50
2023-03-06T00:59:00.033Z,12.98
2023-03-06T01:01:27.628Z,14.00
2023-03-06T01:03:55.141Z,12.98
2023-03-06T01:06:22.653Z,12.02
2023-03-06T01:08:50.179Z,13.38
2023-03-06T01:11:18.300Z,12.18
2023-03-06T01:13:46.151Z,12.57
2023-03-06T01:16:14.633Z,13.45
2023-03-06T01:18:42.234Z,13.52
2023-03-06T01:21:09.791Z,13.15
2023-03-06T01:23:37.319Z,13.13
2023-03-06T01:26:04.941Z,13.45
2023-03-06T01:28:34.006Z,12.45
2023-03-06T01:31:03.216Z,13.07
2023-03-06T01:33:30.827Z,12.63
2023-03-06T01:35:58.339Z,12.13
2023-03-06T01:38:25.860Z,11.57
2023-03-06T01:40:53.376Z,12.85
2023-03-06T01:43:27.144Z,10.15
2023-03-06T01:46:13.957Z,12.52
2023-03-06T01:48:41.513Z,13.20
2023-03-06T01:51:09.030Z,13.48
2023-03-06T01:53:36.542Z,12.95
2023-03-06T01:56:04.146Z,9.77
2023-03-06T01:58:31.664Z,13.60
2023-03-06T02:00:59.256Z,12.43
2023-03-06T02:03:27.340Z,8.93
2023-03-06T02:05:54.861Z,12.35
2023-03-06T02:08:22.642Z,12.30
2023-03-06T02:11:02.573Z,11.88
2023-03-06T02:13:30.561Z,13.13
2023-03-06T02:15:58.108Z,12.35
2023-03-06T02:18:25.926Z,11.88
2023-03-06T02:20:53.932Z,11.30
2023-03-06T02:23:42.415Z,12.38
2023-03-06T02:26:10.300Z,12.13
2023-03-06T02:28:39.751Z,11.25
2023-03-06T02:31:07.682Z,12.18
2023-03-06T02:33:35.334Z,12.35
2023-03-06T02:36:03.745Z,12.80
2023-03-06T02:38:38.017Z,11.95
2023-03-06T02:41:06.800Z,11.88
2023-03-06T02:43:35.257Z,11.55
2023-03-06T02:46:03.193Z,11.55
2023-03-06T02:48:30.757Z,8.77
2023-03-06T02:50:58.307Z,11.68
2023-03-06T02:53:26.789Z,12.25
2023-03-06T02:55:54.310Z,8.98
2023-03-06T02:58:21.931Z,11.05
2023-03-06T03:00:50.044Z,11.27
2023-03-06T03:03:18.231Z,12.25
2023-03-06T03:05:45.764Z,11.98
2023-03-06T03:08:23.024Z,11.00
2023-03-06T03:10:53.700Z,12.55
2023-03-06T03:13:21.286Z,9.38
2023-03-06T03:16:00.263Z,12.48
2023-03-06T03:18:28.015Z,12.05
2023-03-06T03:20:55.694Z,12.32
2023-03-06T03:23:23.820Z,10.77
2023-03-06T03:25:51.367Z,11.95
2023-03-06T03:28:18.980Z,12.10
2023-03-06T03:30:46.652Z,12.98
2023-03-06T03:33:14.385Z,12.73
2023-03-06T03:35:43.382Z,11.77
2023-03-06T03:38:10.978Z,12.43
2023-03-06T03:40:39.276Z,10.75
2023-03-06T03:45:34.399Z,12.57
2023-03-06T03:48:02.033Z,13.25
2023-03-06T03:50:30.203Z,12.48
2023-03-06T03:52:58.149Z,11.57
2023-03-06T03:55:25.821Z,12.30
2023-03-06T03:57:53.894Z,12.18
2023-03-06T04:00:21.694Z,12.43
2023-03-06T04:03:01.287Z,12.18
2023-03-06T04:05:41.860Z,12.77
2023-03-06T04:08:10.509Z,12.40
2023-03-06T04:10:42.064Z,12.18
2023-03-06T04:13:10.850Z,12.05
2023-03-06T04:15:42.582Z,11.32
2023-03-06T04:18:11.352Z,10.60
2023-03-06T04:20:39.355Z,11.65
2023-03-06T04:23:06.893Z,12.55
2023-03-06T04:25:34.473Z,11.90
2023-03-06T04:28:04.181Z,12.27
2023-03-06T04:30:32.181Z,12.45
2023-03-06T04:33:00.657Z,12.13
2023-03-06T04:35:28.310Z,12.00
2023-03-06T04:38:01.337Z,11.85
2023-03-06T04:40:31.506Z,11.85
2023-03-06T04:42:59.541Z,11.30
2023-03-06T04:45:27.431Z,12.45
2023-03-06T04:47:55.109Z,13.15
2023-03-06T04:50:22.825Z,12.18
2023-03-06T04:52:50.502Z,12.10
2023-03-06T04:55:18.087Z,9.57
2023-03-06T04:57:45.930Z,12.43
2023-03-06T05:00:17.782Z,11.18
2023-03-06T05:02:45.442Z,12.02
2023-03-06T05:05:13.034Z,12.65
2023-03-06T05:07:40.864Z,10.18
2023-03-06T05:10:10.795Z,10.60
2023-03-06T05:12:39.254Z,11.32
2023-03-06T05:15:07.180Z,11.23
2023-03-06T05:17:34.732Z,12.77
2023-03-06T05:20:02.318Z,11.80
2023-03-06T05:22:29.820Z,12.50
2023-03-06T05:24:57.365Z,11.38
2023-03-06T05:27:24.930Z,11.95
2023-03-06T05:29:52.474Z,11.85
2023-03-06T05:32:20.063Z,11.75
2023-03-06T05:34:47.969Z,11.32
2023-03-06T05:37:15.740Z,12.55
2023-03-06T05:39:43.409Z,12.10
2023-03-06T05:42:11.038Z,11.00
2023-03-06T05:44:38.617Z,13.73
2023-03-06T05:47:06.199Z,12.05
2023-03-06T05:49:34.349Z,11.85
2023-03-06T05:52:03.909Z,12.95
2023-03-06T05:54:31.970Z,11.68
2023-03-06T05:56:59.569Z,11.43
2023-03-06T05:59:28.436Z,11.48
2023-03-06T06:01:56.333Z,11.23
2023-03-06T06:04:24.194Z,13.10
2023-03-06T06:06:52.652Z,13.40
2023-03-06T06:09:21.066Z,10.70
2023-03-06T06:11:51.124Z,12.82
2023-03-06T06:14:18.659Z,12.05
2023-03-06T06:16:46.201Z,11.73
2023-03-06T06:19:20.256Z,12.18
2023-03-06T06:21:48.615Z,12.50
2023-03-06T06:24:16.463Z,13.27
2023-03-06T06:26:44.117Z,12.13
2023-03-06T06:29:11.870Z,12.50
2023-03-06T06:31:39.488Z,11.38
2023-03-06T06:34:07.187Z,8.15
2023-03-06T06:36:34.846Z,11.98
2023-03-06T06:39:02.546Z,11.30
2023-03-06T06:41:50.614Z,9.90
2023-03-06T06:44:17.836Z,11.88
2023-03-06T06:49:33.090Z,11.85
2023-03-06T06:52:00.696Z,11.60
2023-03-06T06:54:28.298Z,10.55
2023-03-06T06:56:55.852Z,12.38
2023-03-06T06:59:23.769Z,12.23
2023-03-06T07:01:52.081Z,12.48
2023-03-06T07:06:47.169Z,12.93
2023-03-06T07:09:14.711Z,12.27
2023-03-06T07:11:42.287Z,12.25
2023-03-06T07:14:09.846Z,13.48
2023-03-06T07:16:37.488Z,9.20
2023-03-06T07:19:05.009Z,12.50
2023-03-06T07:21:32.600Z,13.77
2023-03-06T07:24:01.185Z,12.50
2023-03-06T07:26:28.776Z,12.60
2023-03-06T07:28:56.318Z,12.82
2023-03-06T07:31:24.841Z,12.85
2023-03-06T07:33:52.566Z,12.57
2023-03-06T07:36:20.223Z,11.68
2023-03-06T07:38:47.785Z,12.63
2023-03-06T07:41:16.364Z,9.57
2023-03-06T07:43:44.229Z,12.88
2023-03-06T07:46:13.044Z,12.85
2023-03-06T07:48:40.828Z,13.18
2023-03-06T07:51:09.264Z,12.05
2023-03-06T07:53:36.979Z,11.70
2023-03-06T07:56:09.028Z,11.85
2023-03-06T07:58:37.680Z,11.52
2023-03-06T08:01:09.423Z,12.25
2023-03-06T08:03:37.446Z,11.68
2023-03-06T08:06:15.190Z,11.48
2023-03-06T08:08:43.351Z,12.13
2023-03-06T08:11:11.268Z,12.95
2023-03-06T08:13:38.951Z,11.95
2023-03-06T08:16:06.722Z,11.38
2023-03-06T08:18:34.403Z,13.23
2023-03-06T08:21:03.086Z,14.43
2023-03-06T08:23:30.697Z,14.45
2023-03-06T08:25:59.204Z,13.20
2023-03-06T08:28:26.904Z,13.40
2023-03-06T08:30:54.436Z,13.50
2023-03-06T08:33:22.069Z,13.63
2023-03-06T08:35:49.655Z,13.93
2023-03-06T08:38:17.253Z,13.82
2023-03-06T08:40:45.073Z,14.10
2023-03-06T08:43:14.150Z,14.52
2023-03-06T08:45:41.939Z,13.85
2023-03-06T08:48:09.511Z,13.73
2023-03-06T08:50:37.092Z,14.55
2023-03-06T08:53:04.757Z,13.77
2023-03-06T08:55:32.337Z,14.15
2023-03-06T08:58:00.565Z,13.80
2023-03-06T09:00:28.292Z,13.50
2023-03-06T09:02:55.836Z,13.52
2023-03-06T09:05:23.489Z,13.82
2023-03-06T09:07:50.977Z,9.80
2023-03-06T09:10:19.698Z,14.00
2023-03-06T09:12:51.360Z,14.43
2023-03-06T09:15:20.543Z,12.40
2023-03-06T09:17:48.167Z,13.75
2023-03-06T09:20:15.826Z,15.20
2023-03-06T09:22:43.577Z,12.30
2023-03-06T09:25:13.245Z,14.00
2023-03-06T09:27:41.010Z,14.38
2023-03-06T09:30:08.794Z,13.50
2023-03-06T09:32:36.410Z,14.70
2023-03-06T09:35:04.069Z,13.38
2023-03-06T09:37:31.636Z,14.45
2023-03-06T09:39:59.163Z,13.77
2023-03-06T09:42:26.677Z,15.40
2023-03-06T09:44:55.233Z,13.82
2023-03-06T09:47:29.268Z,13.25
2023-03-06T09:50:06.193Z,13.88
2023-03-06T09:52:35.728Z,12.95
2023-03-06T09:55:03.482Z,13.65
2023-03-06T09:57:35.544Z,13.82
2023-03-06T10:00:07.672Z,12.10
2023-03-06T10:02:47.464Z,13.23
2023-03-06T10:05:22.829Z,12.27
2023-03-06T10:07:51.868Z,12.60
2023-03-06T10:10:20.768Z,12.40
2023-03-06T10:12:50.226Z,12.52
2023-03-06T10:15:19.204Z,13.15
2023-03-06T10:17:46.753Z,14.10
2023-03-06T10:20:24.412Z,13.18
2023-03-06T10:23:05.146Z,13.60
2023-03-06T10:25:32.991Z,12.45
2023-03-06T10:28:03.632Z,10.20
2023-03-06T10:30:50.146Z,10.98
2023-03-06T10:33:20.710Z,11.73
2023-03-06T10:35:51.853Z,12.57
2023-03-06T10:38:19.420Z,11.02
2023-03-06T10:40:52.164Z,11.23
2023-03-06T10:43:19.704Z,11.77
2023-03-06T10:45:51.077Z,12.88
2023-03-06T10:48:19.949Z,11.30
2023-03-06T10:50:47.537Z,11.27
2023-03-06T10:53:21.362Z,11.68
2023-03-06T10:55:52.500Z,9.85
2023-03-06T10:58:24.093Z,11.52
2023-03-06T11:01:11.871Z,10.82
2023-03-06T11:03:39.397Z,10.82
2023-03-06T11:06:12.923Z,10.65
2023-03-06T11:08:41.404Z,11.38
2023-03-06T11:11:10.010Z,12.68
2023-03-06T11:13:38.016Z,11.40
2023-03-06T11:16:05.750Z,11.55
2023-03-06T11:18:40.510Z,8.77
2023-03-06T11:21:24.234Z,11.73
2023-03-06T11:23:51.767Z,11.48
2023-03-06T11:26:27.287Z,8.85
2023-03-06T11:28:54.862Z,10.55
2023-03-06T11:31:26.591Z,9.18
2023-03-06T11:34:12.652Z,11.75
2023-03-06T11:36:56.304Z,11.52
2023-03-06T11:39:30.025Z,11.60
2023-03-06T11:42:00.126Z,12.38
2023-03-06T11:44:46.503Z,11.43
2023-03-06T11:47:14.026Z,11.75
2023-03-06T11:49:45.494Z,11.85
2023-03-06T11:52:21.516Z,11.80
2023-03-06T11:54:50.285Z,11.25
2023-03-06T11:57:26.246Z,11.98
2023-03-06T11:59:54.910Z,12.18
2023-03-06T12:02:26.155Z,12.35
2023-03-06T12:05:12.634Z,11.52
2023-03-06T12:07:47.123Z,11.90
2023-03-06T12:10:14.726Z,11.82
2023-03-06T12:12:48.835Z,12.60
2023-03-06T12:15:22.170Z,12.82
2023-03-06T12:17:52.702Z,11.07
2023-03-06T12:20:23.615Z,11.23
2023-03-06T12:22:57.565Z,12.13
2023-03-06T12:25:34.426Z,12.45
2023-03-06T12:28:11.229Z,11.90
2023-03-06T12:30:41.633Z,11.35
2023-03-06T12:33:17.971Z,11.52
2023-03-06T12:35:48.364Z,12.13
2023-03-06T12:38:16.088Z,9.73
2023-03-06T12:40:50.849Z,12.15
2023-03-06T12:43:30.581Z,11.98
2023-03-06T12:45:59.290Z,11.20
2023-03-06T12:48:27.474Z,11.18
2023-03-06T12:50:54.998Z,11.85
2023-03-06T12:53:27.129Z,10.43
2023-03-06T12:55:54.631Z,11.57
2023-03-06T12:58:31.241Z,11.52
2023-03-06T13:01:19.884Z,10.85
2023-03-06T13:04:06.310Z,11.38
2023-03-06T13:06:54.101Z,11.05
2023-03-06T13:09:27.397Z,11.25
2023-03-06T13:12:09.981Z,13.13
2023-03-06T13:14:39.633Z,11.90
2023-03-06T13:17:25.186Z,11.15
2023-03-06T13:20:11.759Z,10.18
2023-03-06T13:22:39.455Z,11.25
2023-03-06T13:25:19.270Z,10.38
2023-03-06T13:27:53.008Z,11.35
2023-03-06T13:30:35.913Z,10.48
2023-03-06T13:33:03.742Z,11.10
2023-03-06T13:35:32.080Z,10.15
2023-03-06T13:38:00.093Z,10.82
2023-03-06T13:40:28.858Z,11.48
2023-03-06T13:43:08.730Z,10.90
2023-03-06T13:45:43.188Z,10.95
2023-03-06T13:48:43.809Z,10.65
2023-03-06T13:51:24.241Z,11.50
2023-03-06T13:54:10.738Z,11.68
2023-03-06T13:56:48.811Z,11.40
2023-03-06T13:59:25.429Z,11.30
2023-03-06T14:01:58.842Z,12.05
2023-03-06T14:04:34.297Z,11.20
2023-03-06T14:07:04.400Z,11.45
2023-03-06T14:09:42.975Z,11.27
2023-03-06T14:12:13.660Z,10.77
2023-03-06T14:14:44.857Z,10.90
2023-03-06T14:17:16.306Z,10.70
2023-03-06T14:19:43.820Z,11.30
2023-03-06T14:22:16.577Z,11.73
2023-03-06T14:24:45.884Z,10.98
2023-03-06T14:27:18.582Z,11.15
2023-03-06T14:29:48.556Z,10.98
2023-03-06T14:32:19.547Z,12.50
2023-03-06T14:34:47.150Z,10.27
2023-03-06T14:37:21.980Z,10.38
2023-03-06T14:39:49.631Z,11.10
2023-03-06T14:42:26.658Z,12.20
2023-03-06T14:45:06.373Z,11.48
2023-03-06T14:47:34.633Z,10.52
2023-03-06T14:52:29.655Z,10.65
2023-03-06T14:54:57.142Z,10.43
2023-03-06T14:57:24.671Z,10.32
2023-03-06T14:59:56.989Z,11.15
2023-03-06T15:02:25.286Z,9.95
2023-03-06T15:07:22.514Z,10.00
2023-03-06T15:09:50.715Z,10.43
2023-03-06T15:12:21.174Z,10.13
2023-03-06T15:15:03.772Z,10.82
2023-03-06T15:17:32.413Z,9.98
2023-03-06T15:20:00.525Z,9.85
2023-03-06T15:22:43.474Z,11.00
2023-03-06T15:25:32.395Z,10.70
2023-03-06T15:28:03.069Z,9.65
2023-03-06T15:30:32.293Z,9.77
2023-03-06T15:33:18.728Z,9.77
2023-03-06T15:36:02.437Z,11.10
2023-03-06T15:38:41.697Z,10.43
2023-03-06T15:41:27.201Z,9.23
2023-03-06T15:43:54.748Z,9.85
2023-03-06T15:46:22.294Z,9.18
2023-03-06T15:48:56.624Z,8.77
2023-03-06T15:51:24.197Z,9.05
2023-03-06T15:53:54.956Z,8.27
2023-03-06T15:56:25.348Z,8.65
2023-03-06T15:58:52.936Z,9.27
2023-03-06T16:01:20.457Z,8.18
2023-03-06T16:03:48.073Z,6.65
2023-03-06T16:06:16.613Z,7.95
2023-03-06T16:08:44.346Z,7.68
2023-03-06T16:11:17.192Z,9.10
2023-03-06T16:13:45.041Z,8.93
2023-03-06T16:16:16.265Z,8.77
2023-03-06T16:18:43.825Z,8.20
2023-03-06T16:21:11.392Z,9.45
2023-03-06T16:23:39.140Z,7.78
2023-03-06T16:26:19.478Z,7.10
2023-03-06T16:28:47.064Z,8.20
2023-03-06T16:31:14.784Z,8.82
2023-03-06T16:33:42.351Z,7.00
2023-03-06T16:36:19.895Z,7.50
2023-03-06T16:38:48.061Z,6.65
2023-03-06T16:41:16.050Z,6.57
2023-03-06T16:43:43.677Z,7.78
2023-03-06T16:46:15.714Z,5.90
2023-03-06T16:48:43.344Z,6.80
2023-03-06T16:51:14.171Z,7.35
2023-03-06T16:53:41.722Z,6.68
2023-03-06T16:56:12.699Z,6.50
2023-03-06T16:58:40.393Z,7.20
2023-03-06T17:01:08.313Z,7.32
2023-03-06T17:03:36.352Z,7.72
2023-03-06T17:06:04.330Z,7.43
2023-03-06T17:08:31.869Z,7.20
2023-03-06T17:10:59.448Z,6.90
2023-03-06T17:13:26.989Z,7.15
2023-03-06T17:15:59.321Z,6.38
2023-03-06T17:18:27.252Z,7.60
2023-03-06T17:20:54.875Z,7.18
2023-03-06T17:23:25.852Z,7.88
2023-03-06T17:25:54.001Z,8.25
2023-03-06T17:28:21.506Z,7.57
2023-03-06T17:30:49.026Z,5.85
2023-03-06T17:33:16.647Z,7.97
2023-03-06T17:35:44.191Z,7.75
2023-03-06T17:38:11.780Z,8.40
2023-03-06T17:40:39.280Z,9.15
2023-03-06T17:43:06.790Z,8.05
2023-03-06T17:45:36.280Z,9.20
2023-03-06T17:48:03.858Z,8.30
2023-03-06T17:50:31.412Z,7.85
2023-03-06T17:52:58.903Z,7.88
2023-03-06T17:55:27.969Z,7.95
2023-03-06T17:57:55.452Z,8.57
2023-03-06T18:00:23.235Z,6.75
2023-03-06T18:02:50.737Z,6.65
2023-03-06T18:05:20.425Z,8.45
2023-03-06T18:07:47.972Z,8.70
2023-03-06T18:10:15.599Z,9.07
2023-03-06T18:12:43.277Z,9.25
2023-03-06T18:15:10.862Z,8.82
2023-03-06T18:17:38.600Z,8.75
2023-03-06T18:20:06.604Z,10.40
2023-03-06T18:22:34.202Z,10.18
2023-03-06T18:25:01.733Z,10.00
2023-03-06T18:27:29.265Z,9.73
2023-03-06T18:29:56.767Z,8.20
2023-03-06T18:32:24.428Z,9.38
2023-03-06T18:34:52.017Z,9.73
2023-03-06T18:37:19.557Z,7.05
2023-03-06T18:39:47.166Z,7.30
2023-03-06T18:42:14.713Z,9.77
2023-03-06T18:44:43.878Z,8.15
2023-03-06T18:47:11.402Z,10.00
2023-03-06T18:49:40.589Z,8.73
2023-03-06T18:52:08.764Z,10.15
2023-03-06T18:54:36.381Z,6.80
2023-03-06T18:57:03.974Z,9.32
2023-03-06T18:59:31.527Z,9.60
2023-03-06T19:01:59.165Z,9.18
2023-03-06T19:04:26.943Z,8.88
2023-03-06T19:06:54.900Z,9.70
2023-03-06T19:09:22.581Z,9.52
2023-03-06T19:11:50.099Z,9.32
2023-03-06T19:14:17.637Z,8.93
2023-03-06T19:16:45.288Z,7.80
2023-03-06T19:19:12.932Z,6.97
2023-03-06T19:21:40.454Z,9.38
2023-03-06T19:24:13.191Z,8.20
2023-03-06T19:26:41.564Z,8.57
2023-03-06T19:31:36.524Z,9.38
2023-03-06T19:34:04.057Z,8.73
2023-03-06T19:36:33.988Z,5.90
2023-03-06T19:39:02.512Z,8.07
2023-03-06T19:41:30.166Z,8.70
2023-03-06T19:43:58.781Z,9.10
2023-03-06T19:46:26.957Z,9.15
2023-03-06T19:48:56.125Z,9.45
2023-03-06T19:51:23.794Z,8.75
2023-03-06T19:53:51.388Z,9.82
2023-03-06T19:56:20.232Z,8.65
2023-03-06T19:58:47.838Z,8.88
2023-03-06T20:01:16.455Z,9.13
2023-03-06T20:03:44.220Z,8.85
2023-03-06T20:06:13.161Z,8.80
2023-03-06T20:08:40.745Z,9.85
2023-03-06T20:11:14.860Z,11.07
2023-03-06T20:13:47.225Z,9.85
2023-03-06T20:16:15.698Z,9.95
2023-03-06T20:18:43.398Z,10.20
2023-03-06T20:21:10.965Z,9.65
2023-03-06T20:23:38.517Z,9.65
2023-03-06T20:26:07.032Z,11.65
2023-03-06T20:28:35.243Z,10.75
2023-03-06T20:31:06.930Z,9.73
2023-03-06T20:33:34.621Z,10.18
2023-03-06T20:36:02.190Z,9.82
2023-03-06T20:38:29.784Z,8.68
2023-03-06T20:40:58.333Z,9.38
2023-03-06T20:43:25.900Z,9.60
2023-03-06T20:45:57.060Z,8.90
2023-03-06T20:48:24.621Z,9.20
2023-03-06T20:51:02.191Z,6.07
2023-03-06T20:53:29.843Z,9.90
2023-03-06T20:55:57.429Z,8.48
2023-03-06T20:58:28.490Z,9.25
2023-03-06T21:00:57.077Z,9.00
2023-03-06T21:03:24.851Z,9.13
2023-03-06T21:05:52.358Z,8.93
2023-03-06T21:08:19.859Z,7.97
2023-03-06T21:10:47.358Z,8.43
2023-03-06T21:13:14.863Z,9.88
2023-03-06T21:15:42.640Z,9.07
2023-03-06T21:18:10.366Z,8.77
2023-03-06T21:20:41.201Z,9.30
2023-03-06T21:23:09.077Z,9.25
2023-03-06T21:25:36.643Z,9.38
2023-03-06T21:28:04.173Z,9.25
2023-03-06T21:30:31.743Z,8.60
2023-03-06T21:32:59.277Z,9.02
2023-03-06T21:35:26.862Z,7.90
2023-03-06T21:37:54.427Z,10.23
2023-03-06T21:40:22.030Z,7.47
2023-03-06T21:42:49.552Z,10.50
2023-03-06T21:45:17.071Z,10.18
2023-03-06T21:47:44.578Z,10.35
2023-03-06T21:50:12.487Z,10.30
2023-03-06T21:52:40.194Z,9.55
2023-03-06T21:55:08.308Z,10.05
2023-03-06T21:57:35.851Z,9.45
2023-03-06T22:00:08.253Z,9.35
2023-03-06T22:02:37.957Z,9.98
2023-03-06T22:05:06.043Z,9.38
2023-03-06T22:07:37.132Z,10.90
2023-03-06T22:10:09.240Z,8.75
2023-03-06T22:12:37.161Z,9.68
2023-03-06T22:15:04.951Z,10.02
2023-03-06T22:17:32.701Z,9.45
2023-03-06T22:20:00.306Z,10.75
2023-03-06T22:22:27.850Z,9.35
2023-03-06T22:24:55.394Z,10.10
2023-03-06T22:27:22.962Z,7.22
2023-03-06T22:29:50.512Z,10.25
2023-03-06T22:32:18.111Z,10.00
2023-03-06T22:34:45.652Z,10.70
2023-03-06T22:37:13.224Z,7.40
2023-03-06T22:39:40.851Z,9.25
2023-03-06T22:42:08.368Z,10.68
2023-03-06T22:44:35.894Z,9.82
2023-03-06T22:47:03.392Z,10.80
2023-03-06T22:49:30.943Z,11.65
2023-03-06T22:51:58.449Z,11.48
2023-03-06T22:54:25.990Z,7.15
2023-03-06T22:56:53.532Z,10.55
2023-03-06T22:59:21.084Z,10.23
2023-03-06T23:01:48.596Z,11.70
2023-03-06T23:04:16.303Z,9.60
2023-03-06T23:06:44.572Z,10.68
2023-03-06T23:09:20.564Z,10.93
2023-03-06T23:12:08.880Z,10.05
2023-03-06T23:14:55.121Z,10.20
2023-03-06T23:17:41.393Z,11.32
2023-03-06T23:20:27.491Z,10.02
2023-03-06T23:23:14.192Z,10.73
2023-03-06T23:25:41.812Z,9.25
2023-03-06T23:28:09.356Z,10.50
2023-03-06T23:30:38.407Z,9.85
2023-03-06T23:33:05.977Z,10.98
2023-03-06T23:35:34.192Z,9.40
2023-03-06T23:40:31.105Z,9.75
2023-03-06T23:42:58.737Z,10.77
2023-03-06T23:45:26.317Z,9.68
2023-03-06T23:47:53.841Z,10.48
2023-03-06T23:50:22.900Z,10.60
2023-03-06T23:52:53.897Z,10.45
2023-03-06T23:55:21.467Z,10.02
2023-03-06T23:57:48.995Z,10.95
